Latitude: N 50° 09' 49" Longitude: W 05° 11' 53" Elevation: 168m ASL

There are 15 visitors online

Adverts
Latest METAR Data

Below are the latest METARs ("Meteorological Services to Airmen Reports"), for RNAS Culdrose and Newquay Airport.

EGDR - RNAS Culdrose
Distance from station: SW 6mi, 9km
Updated: Tue, 16-Oct-2018 10:50am BST
Light drizzle, Mostly cloudy
Light drizzle, Mostly cloudy
 Wind from SW
Wind: SW 10 mph , 17 km/h
Temperature: 55°F , 13°C
Dew Point: 54°F , 12°C
Humidity: 94%
Barometer: 29.97 inHg , 1015 hPa
Summary: Light Drizzle
Clouds: Mostly Cloudy
Visibility: 6 miles , 10 km
Cloud details: Few Clouds 400 ft
Partly Cloudy 1200 ft
Mostly Cloudy 1600 ft
2018/10/16 09:50 EGDR 160950Z 22009KT 9999 -DZ FEW004 SCT012 BKN016 13/12 Q1015 GRN NOSIG
EGHQ - Newquay Airport
Distance from station: NE 21mi, 34km
Updated: Tue, 16-Oct-2018 11:20am BST
Mostly Cloudy
Mostly Cloudy
 Wind from SW
Wind: SW 8 mph , 13 km/h
Temperature: 54°F , 12°C
Dew Point: 52°F , 11°C
Humidity: 94%
Barometer: 29.97 inHg , 1015 hPa
Clouds: Mostly Cloudy
Visibility: 5 miles , 8 km
Cloud details: Partly Cloudy 500 ft
Mostly Cloudy 1300 ft
2018/10/16 10:20 EGHQ 161020Z 23007KT 8000 SCT005 BKN013 12/11 Q1015
 
EGTE - Exeter Airport
Distance from station: ENE 88mi, 141km
Updated: Tue, 16-Oct-2018 11:20am BST
Mostly Cloudy
Mostly Cloudy
 Wind from SW
Wind: SW 6 mph , 9 km/h
Temperature: 59°F , 15°C
Dew Point: 57°F , 14°C
Humidity: 94%
Barometer: 29.97 inHg , 1015 hPa
Clouds: Mostly Cloudy
Visibility: 6 miles , 10 km
Cloud details: Few Clouds 500 ft
Mostly Cloudy 3800 ft
2018/10/16 10:20 EGTE 161020Z 22005KT 9999 FEW005 BKN038 15/14 Q1015
EGHE - St Marys, IOS
Distance from station: W 51mi, 82km
Updated: Tue, 16-Oct-2018 11:20am BST
Few Clouds
Few Clouds
 Wind from SW
Wind: SW 15 mph , 24 km/h
Temperature: 59°F , 15°C
Dew Point: 50°F , 10°C
Humidity: 72%
Barometer: 29.97 inHg , 1015 hPa
Clouds: Few Clouds
Visibility: 6 miles , 10 km
Cloud details: Few Clouds 2000 ft
2018/10/16 10:20 EGHE 161020Z 22013KT 9999 FEW020 15/10 Q1015

Metar display script from Saratoga-Weather.org

UK - WEATHER STATION TOPSITES - UK World Weather Websites

This is a private weather station, never base important decisions or events on data from this weather station. Although every effort has been made to make the data as accurate as possible it does not meet MetOffice standards. It is proved as a guide of local weather conditions. We accept no liability for any loss which may arise from use of the data.

Copyright © Carnkie Weather 2009 - 2018.